createdAt,value
2018-12-03T00:00:27.222Z,12.53
2018-12-03T00:02:58.682Z,12.52
2018-12-03T00:05:27.382Z,12.53
2018-12-03T00:07:56.075Z,12.51
2018-12-03T00:10:24.784Z,12.49
2018-12-03T00:12:53.468Z,12.47
2018-12-03T00:15:22.140Z,12.45
2018-12-03T00:17:50.842Z,12.44
2018-12-03T00:20:19.576Z,12.43
2018-12-03T00:22:48.339Z,12.42
2018-12-03T00:25:17.044Z,12.43
2018-12-03T00:27:52.066Z,12.44
2018-12-03T00:30:21.083Z,12.45
2018-12-03T00:32:50.031Z,12.46
2018-12-03T00:35:18.715Z,12.48
2018-12-03T00:37:47.423Z,12.49
2018-12-03T00:40:16.110Z,12.49
2018-12-03T00:42:44.849Z,12.50
2018-12-03T00:45:13.578Z,12.50
2018-12-03T00:47:42.244Z,12.50
2018-12-03T00:50:10.958Z,12.48
2018-12-03T00:52:39.664Z,12.49
2018-12-03T00:55:08.850Z,12.48
2018-12-03T00:57:37.513Z,12.47
2018-12-03T01:00:08.802Z,12.48
2018-12-03T01:02:37.553Z,12.46
2018-12-03T01:05:07.957Z,12.46
2018-12-03T01:07:36.806Z,12.46
2018-12-03T01:10:07.431Z,12.47
2018-12-03T01:12:36.167Z,12.46
2018-12-03T01:15:06.813Z,12.47
2018-12-03T01:17:35.493Z,12.48
2018-12-03T01:20:05.762Z,12.49
2018-12-03T01:22:34.461Z,12.49
2018-12-03T01:25:03.188Z,12.52
2018-12-03T01:27:31.857Z,12.50
2018-12-03T01:30:00.651Z,12.49
2018-12-03T01:32:29.320Z,12.50
2018-12-03T01:34:58.030Z,12.50
2018-12-03T01:37:26.713Z,12.53
2018-12-03T01:39:55.362Z,12.53
2018-12-03T01:42:24.031Z,12.54
2018-12-03T01:44:52.703Z,12.53
2018-12-03T01:47:21.385Z,12.54
2018-12-03T01:49:50.057Z,12.54
2018-12-03T01:52:19.213Z,12.56
2018-12-03T01:54:47.939Z,12.57
2018-12-03T01:57:16.614Z,12.58
2018-12-03T01:59:45.322Z,12.58
2018-12-03T02:02:14.002Z,12.59
2018-12-03T02:04:42.655Z,12.58
2018-12-03T02:07:11.317Z,12.59
2018-12-03T02:09:39.993Z,12.59
2018-12-03T02:12:08.678Z,12.60
2018-12-03T02:14:37.512Z,12.61
2018-12-03T02:17:06.226Z,12.59
2018-12-03T02:19:34.891Z,12.58
2018-12-03T02:22:03.679Z,12.57
2018-12-03T02:24:32.333Z,12.56
2018-12-03T02:27:01.057Z,12.57
2018-12-03T02:29:29.763Z,12.55
2018-12-03T02:31:58.418Z,12.53
2018-12-03T02:34:27.097Z,12.55
2018-12-03T02:36:55.751Z,12.54
2018-12-03T02:39:24.414Z,12.54
2018-12-03T02:41:53.044Z,12.53
2018-12-03T02:44:21.695Z,12.52
2018-12-03T02:46:50.426Z,12.53
2018-12-03T02:49:19.025Z,12.52
2018-12-03T02:51:47.684Z,12.52
2018-12-03T02:54:16.351Z,12.53
2018-12-03T02:56:44.986Z,12.54
2018-12-03T02:59:13.630Z,12.55
2018-12-03T03:01:42.374Z,12.55
2018-12-03T03:04:11.014Z,12.56
2018-12-03T03:06:39.665Z,12.56
2018-12-03T03:09:10.781Z,12.57
2018-12-03T03:11:39.410Z,12.57
2018-12-03T03:14:08.058Z,12.58
2018-12-03T03:16:36.702Z,12.57
2018-12-03T03:19:05.543Z,12.57
2018-12-03T03:21:34.205Z,12.57
2018-12-03T03:24:02.847Z,12.55
2018-12-03T03:26:31.538Z,12.56
2018-12-03T03:29:00.186Z,12.56
2018-12-03T03:31:28.819Z,12.55
2018-12-03T03:33:57.469Z,12.52
2018-12-03T03:36:26.104Z,12.50
2018-12-03T03:38:54.766Z,12.51
2018-12-03T03:41:23.445Z,12.52
2018-12-03T03:43:52.101Z,12.53
2018-12-03T03:46:20.739Z,12.54
2018-12-03T03:48:49.422Z,12.55
2018-12-03T03:51:18.095Z,12.54
2018-12-03T03:53:46.738Z,12.56
2018-12-03T03:56:15.415Z,12.55
2018-12-03T03:58:44.083Z,12.55
2018-12-03T04:01:12.755Z,12.56
2018-12-03T04:03:41.437Z,12.56
2018-12-03T04:06:10.122Z,12.58
2018-12-03T04:08:38.768Z,12.58
2018-12-03T04:11:07.438Z,12.58
2018-12-03T04:13:36.103Z,12.58
2018-12-03T04:16:04.966Z,12.60
2018-12-03T04:18:33.617Z,12.61
2018-12-03T04:21:02.266Z,12.63
2018-12-03T04:23:30.907Z,12.65
2018-12-03T04:25:59.559Z,12.67
2018-12-03T04:28:28.221Z,12.68
2018-12-03T04:30:56.892Z,12.69
2018-12-03T04:33:25.578Z,12.69
2018-12-03T04:35:54.247Z,12.70
2018-12-03T04:38:22.922Z,12.71
2018-12-03T04:40:52.178Z,12.71
2018-12-03T04:43:20.830Z,12.72
2018-12-03T04:45:49.508Z,12.70
2018-12-03T04:48:18.159Z,12.70
2018-12-03T04:50:46.832Z,12.69
2018-12-03T04:53:15.502Z,12.67
2018-12-03T04:55:44.143Z,12.65
2018-12-03T04:58:12.786Z,12.65
2018-12-03T05:00:41.538Z,12.63
2018-12-03T05:03:10.195Z,12.60
2018-12-03T05:05:38.841Z,12.58
2018-12-03T05:08:07.632Z,12.57
2018-12-03T05:10:36.290Z,12.55
2018-12-03T05:13:05.031Z,12.55
2018-12-03T05:15:33.726Z,12.53
2018-12-03T05:18:02.417Z,12.52
2018-12-03T05:20:31.059Z,12.53
2018-12-03T05:22:59.731Z,12.52
2018-12-03T05:25:28.368Z,12.52
2018-12-03T05:27:57.078Z,12.54
2018-12-03T05:30:25.730Z,12.54
2018-12-03T05:32:54.370Z,12.55
2018-12-03T05:35:25.562Z,12.55
2018-12-03T05:37:54.226Z,12.56
2018-12-03T05:40:25.214Z,12.57
2018-12-03T05:42:53.882Z,12.58
2018-12-03T05:45:22.552Z,12.59
2018-12-03T05:47:51.213Z,12.60
2018-12-03T05:50:19.866Z,12.60
2018-12-03T05:52:48.842Z,12.63
2018-12-03T05:55:17.518Z,12.63
2018-12-03T05:57:46.507Z,12.63
2018-12-03T06:00:19.471Z,12.64
2018-12-03T06:02:48.099Z,12.65
2018-12-03T06:05:17.021Z,12.66
2018-12-03T06:07:45.709Z,12.65
2018-12-03T06:10:15.389Z,12.66
2018-12-03T06:12:44.072Z,12.64
2018-12-03T06:15:13.753Z,12.68
2018-12-03T06:17:42.429Z,12.69
2018-12-03T06:20:13.278Z,12.69
2018-12-03T06:22:41.925Z,12.69
2018-12-03T06:25:17.553Z,12.70
2018-12-03T06:27:46.195Z,12.70
2018-12-03T06:30:16.055Z,12.71
2018-12-03T06:32:44.775Z,12.71
2018-12-03T06:35:14.362Z,12.72
2018-12-03T06:37:43.105Z,12.73
2018-12-03T06:40:13.968Z,12.73
2018-12-03T06:42:42.687Z,12.73
2018-12-03T06:45:13.478Z,12.73
2018-12-03T06:47:47.577Z,12.75
2018-12-03T06:50:16.272Z,12.75
2018-12-03T06:52:44.934Z,12.73
2018-12-03T06:55:13.598Z,12.72
2018-12-03T06:57:42.288Z,12.71
2018-12-03T07:00:12.862Z,12.72
2018-12-03T07:02:41.528Z,12.72
2018-12-03T07:05:10.963Z,12.71
2018-12-03T07:07:39.951Z,12.72
2018-12-03T07:10:14.152Z,12.71
2018-12-03T07:12:43.066Z,12.72
2018-12-03T07:15:13.346Z,12.72
2018-12-03T07:17:42.125Z,12.71
2018-12-03T07:20:11.877Z,12.72
2018-12-03T07:22:40.735Z,12.72
2018-12-03T07:25:10.405Z,12.73
2018-12-03T07:27:39.195Z,12.71
2018-12-03T07:30:22.991Z,12.72
2018-12-03T07:32:52.219Z,12.70
2018-12-03T07:35:21.625Z,12.71
2018-12-03T07:37:52.298Z,12.69
2018-12-03T07:40:20.999Z,12.69
2018-12-03T07:42:49.684Z,12.70
2018-12-03T07:45:22.444Z,12.69
2018-12-03T07:47:51.180Z,12.69
2018-12-03T07:50:20.987Z,12.71
2018-12-03T07:52:49.720Z,12.71
2018-12-03T07:55:23.341Z,12.70
2018-12-03T07:57:57.087Z,12.72
2018-12-03T08:00:26.477Z,12.72
2018-12-03T08:02:55.132Z,12.74
2018-12-03T08:05:23.846Z,12.76
2018-12-03T08:07:52.546Z,12.74
2018-12-03T08:10:21.209Z,12.75
2018-12-03T08:12:50.442Z,12.75
2018-12-03T08:15:19.959Z,12.73
2018-12-03T08:17:51.418Z,12.70
2018-12-03T08:20:21.799Z,12.69
2018-12-03T08:22:52.313Z,12.68
2018-12-03T08:25:21.867Z,12.69
2018-12-03T08:27:50.590Z,12.69
2018-12-03T08:30:19.294Z,12.69
2018-12-03T08:32:48.007Z,12.69
2018-12-03T08:35:17.673Z,12.69
2018-12-03T08:37:46.431Z,12.68
2018-12-03T08:40:18.129Z,12.69
2018-12-03T08:42:49.969Z,12.71
2018-12-03T08:45:18.817Z,12.71
2018-12-03T08:47:47.865Z,12.71
2018-12-03T08:50:23.511Z,12.69
2018-12-03T08:52:52.186Z,12.64
2018-12-03T08:55:20.899Z,12.65
2018-12-03T08:57:49.578Z,12.63
2018-12-03T09:00:22.455Z,12.63
2018-12-03T09:02:57.464Z,12.62
2018-12-03T09:05:27.566Z,12.64
2018-12-03T09:07:56.249Z,12.65
2018-12-03T09:10:24.954Z,12.65
2018-12-03T09:12:53.666Z,12.66
2018-12-03T09:15:22.383Z,12.65
2018-12-03T09:17:51.104Z,12.66
2018-12-03T09:20:19.779Z,12.66
2018-12-03T09:22:48.458Z,12.67
2018-12-03T09:25:22.574Z,12.67
2018-12-03T09:27:51.384Z,12.67
2018-12-03T09:30:20.198Z,12.67
2018-12-03T09:32:48.913Z,12.68
2018-12-03T09:35:17.583Z,12.70
2018-12-03T09:37:46.279Z,12.71
2018-12-03T09:40:18.362Z,12.75
2018-12-03T09:42:47.103Z,12.78
2018-12-03T09:45:17.822Z,12.79
2018-12-03T09:47:46.888Z,12.77
2018-12-03T09:50:18.094Z,12.79
2018-12-03T09:52:46.822Z,12.80
2018-12-03T09:55:17.174Z,12.81
2018-12-03T09:57:52.041Z,12.81
2018-12-03T10:00:20.743Z,12.82
2018-12-03T10:02:49.402Z,12.82
2018-12-03T10:05:18.098Z,12.80
2018-12-03T10:07:46.785Z,12.80
2018-12-03T10:10:15.986Z,12.79
2018-12-03T10:12:44.706Z,12.79
2018-12-03T10:15:14.270Z,12.77
2018-12-03T10:17:47.717Z,12.78
2018-12-03T10:20:16.386Z,12.75
2018-12-03T10:22:49.163Z,12.77
2018-12-03T10:25:17.874Z,12.75
2018-12-03T10:27:46.587Z,12.78
2018-12-03T10:30:19.195Z,12.81
2018-12-03T10:32:49.237Z,12.81
2018-12-03T10:35:18.078Z,12.79
2018-12-03T10:37:46.950Z,12.69
2018-12-03T10:40:19.976Z,12.63
2018-12-03T10:42:49.517Z,12.54
2018-12-03T10:45:26.002Z,12.44
2018-12-03T10:47:49.802Z,12.34
2018-12-03T10:50:22.197Z,12.28
2018-12-03T10:52:48.271Z,12.25
2018-12-03T10:55:17.027Z,12.22
2018-12-03T10:57:46.203Z,12.21
2018-12-03T11:00:20.985Z,12.23
2018-12-03T11:02:55.846Z,12.24
2018-12-03T11:05:32.328Z,12.24
2018-12-03T11:08:01.123Z,12.23
2018-12-03T11:10:38.406Z,12.22
2018-12-03T11:13:07.240Z,12.23
2018-12-03T11:15:36.049Z,12.27
2018-12-03T11:18:05.825Z,12.33
2018-12-03T11:20:34.522Z,12.35
2018-12-03T11:23:03.299Z,12.38
2018-12-03T11:25:33.954Z,12.41
2018-12-03T11:28:04.175Z,12.41
2018-12-03T11:30:33.078Z,12.41
2018-12-03T11:33:01.743Z,12.46
2018-12-03T11:35:31.834Z,12.55
2018-12-03T11:38:15.402Z,12.58
2018-12-03T11:40:47.505Z,12.53
2018-12-03T11:43:16.215Z,12.43
2018-12-03T11:45:44.915Z,12.37
2018-12-03T11:48:13.573Z,12.34
2018-12-03T11:50:42.290Z,12.31
2018-12-03T11:53:10.988Z,12.29
2018-12-03T11:55:39.691Z,12.29
2018-12-03T11:58:08.369Z,12.24
2018-12-03T12:00:37.038Z,12.24
2018-12-03T12:03:06.055Z,12.28
2018-12-03T12:05:34.779Z,12.29
2018-12-03T12:08:03.426Z,12.37
2018-12-03T12:10:32.088Z,12.43
2018-12-03T12:13:00.835Z,12.46
2018-12-03T12:15:29.534Z,12.46
2018-12-03T12:17:58.243Z,12.46
2018-12-03T12:20:26.923Z,12.46
2018-12-03T12:22:55.617Z,12.43
2018-12-03T12:25:24.274Z,12.40
2018-12-03T12:27:55.149Z,12.40
2018-12-03T12:30:23.817Z,12.40
2018-12-03T12:32:52.483Z,12.42
2018-12-03T12:35:21.141Z,12.44
2018-12-03T12:37:49.811Z,12.43
2018-12-03T12:40:18.509Z,12.43
2018-12-03T12:42:47.162Z,12.43
2018-12-03T12:45:17.764Z,12.44
2018-12-03T12:47:46.635Z,12.42
2018-12-03T12:50:16.986Z,12.40
2018-12-03T12:52:45.679Z,12.42
2018-12-03T12:55:14.457Z,12.45
2018-12-03T12:57:43.784Z,12.47
2018-12-03T13:00:14.531Z,12.51
2018-12-03T13:02:44.070Z,12.58
2018-12-03T13:05:12.966Z,12.64
2018-12-03T13:07:41.672Z,12.57
2018-12-03T13:10:13.393Z,12.56
2018-12-03T13:12:42.562Z,12.49
2018-12-03T13:15:13.103Z,12.40
2018-12-03T13:17:44.018Z,12.33
2018-12-03T13:20:14.432Z,12.28
2018-12-03T13:22:43.372Z,12.23
2018-12-03T13:25:14.002Z,12.26
2018-12-03T13:27:43.049Z,12.28
2018-12-03T13:30:13.744Z,12.29
2018-12-03T13:32:42.937Z,12.28
2018-12-03T13:35:13.005Z,12.26
2018-12-03T13:37:42.471Z,12.26
2018-12-03T13:40:13.602Z,12.25
2018-12-03T13:42:42.744Z,12.24
2018-12-03T13:45:14.079Z,12.26
2018-12-03T13:47:42.786Z,12.26
2018-12-03T13:50:14.150Z,12.26
2018-12-03T13:52:43.430Z,12.25
2018-12-03T13:55:14.912Z,12.26
2018-12-03T13:57:43.702Z,12.29
2018-12-03T14:00:19.550Z,12.33
2018-12-03T14:02:54.383Z,12.31
2018-12-03T14:05:23.143Z,12.30
2018-12-03T14:07:56.801Z,12.24
2018-12-03T14:11:38.676Z,12.19
2018-12-03T14:16:29.889Z,12.11
2018-12-03T14:19:03.198Z,12.01
2018-12-03T14:21:37.542Z,11.99
2018-12-03T14:24:13.026Z,11.98
2018-12-03T14:26:41.802Z,11.95
2018-12-03T14:29:10.518Z,11.94
2018-12-03T14:31:39.397Z,11.94
2018-12-03T14:34:15.563Z,11.97
2018-12-03T14:36:44.390Z,11.96
2018-12-03T14:39:14.138Z,11.93
2018-12-03T14:41:42.889Z,11.90
2018-12-03T14:44:12.366Z,11.84
2018-12-03T14:46:41.334Z,11.81
2018-12-03T14:49:10.038Z,11.82
2018-12-03T14:51:38.860Z,11.82
2018-12-03T14:54:08.373Z,11.82
2018-12-03T14:56:37.950Z,11.82
2018-12-03T14:59:06.842Z,11.82
2018-12-03T15:01:35.665Z,11.82
2018-12-03T15:04:09.537Z,11.84
2018-12-03T15:06:38.362Z,11.84
2018-12-03T15:09:09.204Z,11.86
2018-12-03T15:11:37.990Z,11.86
2018-12-03T15:14:06.791Z,11.87
2018-12-03T15:16:35.957Z,11.86
2018-12-03T15:19:04.735Z,11.83
2018-12-03T15:21:34.002Z,11.78
2018-12-03T15:24:02.729Z,11.71
2018-12-03T15:26:31.540Z,11.61
2018-12-03T15:29:00.398Z,11.53
2018-12-03T15:31:29.318Z,11.47
2018-12-03T15:33:59.521Z,11.41
2018-12-03T15:36:28.431Z,11.38
2018-12-03T15:38:57.296Z,11.34
2018-12-03T15:41:26.606Z,11.28
2018-12-03T15:43:55.414Z,11.27
2018-12-03T15:46:24.158Z,11.26
2018-12-03T15:48:52.862Z,11.24
2018-12-03T15:51:21.540Z,11.24
2018-12-03T15:53:50.222Z,11.23
2018-12-03T15:56:18.924Z,11.22
2018-12-03T15:58:47.561Z,11.20
2018-12-03T16:01:16.279Z,11.19
2018-12-03T16:03:45.062Z,11.18
2018-12-03T16:06:13.786Z,11.17
2018-12-03T16:08:42.548Z,11.18
2018-12-03T16:11:11.257Z,11.19
2018-12-03T16:13:39.993Z,11.18
2018-12-03T16:16:08.679Z,11.17
2018-12-03T16:18:37.363Z,11.15
2018-12-03T16:21:06.074Z,11.13
2018-12-03T16:23:34.739Z,11.12
2018-12-03T16:26:03.436Z,11.13
2018-12-03T16:28:32.113Z,11.11
2018-12-03T16:31:00.791Z,11.12
2018-12-03T16:33:29.458Z,11.10
2018-12-03T16:35:58.138Z,11.09
2018-12-03T16:38:26.842Z,11.06
2018-12-03T16:40:55.917Z,11.03
2018-12-03T16:43:24.559Z,11.01
2018-12-03T16:45:53.255Z,10.99
2018-12-03T16:48:21.935Z,10.97
2018-12-03T16:50:50.590Z,10.96
2018-12-03T16:53:19.262Z,10.95
2018-12-03T16:55:47.928Z,10.94
2018-12-03T16:58:16.613Z,10.91
2018-12-03T17:00:45.277Z,10.88
2018-12-03T17:03:13.946Z,10.87
2018-12-03T17:05:42.620Z,10.83
2018-12-03T17:08:11.294Z,10.82
2018-12-03T17:10:39.991Z,10.81
2018-12-03T17:13:08.697Z,10.80
2018-12-03T17:15:37.378Z,10.79
2018-12-03T17:18:06.081Z,10.79
2018-12-03T17:21:08.692Z,10.81
2018-12-03T17:24:52.031Z,10.79
2018-12-03T17:27:20.691Z,10.80
2018-12-03T17:29:49.378Z,10.82
2018-12-03T17:32:18.038Z,10.83
2018-12-03T17:34:48.931Z,10.84
2018-12-03T17:37:15.434Z,10.85
2018-12-03T17:39:44.107Z,10.86
2018-12-03T17:42:12.810Z,10.86
2018-12-03T17:44:41.534Z,10.87
2018-12-03T17:47:10.653Z,10.88
2018-12-03T17:49:39.332Z,10.88
2018-12-03T17:52:08.008Z,10.88
2018-12-03T17:54:36.692Z,10.88
2018-12-03T17:57:05.415Z,10.89
2018-12-03T17:59:34.076Z,10.91
2018-12-03T18:02:02.771Z,10.90
2018-12-03T18:04:31.447Z,10.91
2018-12-03T18:07:00.132Z,10.91
2018-12-03T18:09:28.860Z,10.90
2018-12-03T18:11:57.562Z,10.91
2018-12-03T18:14:26.223Z,10.90
2018-12-03T18:16:54.926Z,10.90
2018-12-03T18:19:23.600Z,10.90
2018-12-03T18:21:52.257Z,10.91
2018-12-03T18:24:20.924Z,10.91
2018-12-03T18:26:49.697Z,10.90
2018-12-03T18:29:18.941Z,10.91
2018-12-03T18:31:47.769Z,10.90
2018-12-03T18:34:16.518Z,10.90
2018-12-03T18:36:45.311Z,10.90
2018-12-03T18:39:14.023Z,10.90
2018-12-03T18:41:42.759Z,10.89
2018-12-03T18:44:11.527Z,10.88
2018-12-03T18:46:43.297Z,10.88
2018-12-03T18:49:19.635Z,10.85
2018-12-03T18:51:48.519Z,10.85
2018-12-03T18:54:17.433Z,10.84
2018-12-03T18:56:46.137Z,10.83
2018-12-03T18:59:14.810Z,10.83
2018-12-03T19:01:43.494Z,10.83
2018-12-03T19:04:12.180Z,10.82
2018-12-03T19:06:40.864Z,10.82
2018-12-03T19:09:09.650Z,10.81
2018-12-03T19:11:38.359Z,10.79
2018-12-03T19:14:07.098Z,10.79
2018-12-03T19:16:35.998Z,10.78
2018-12-03T19:19:04.708Z,10.79
2018-12-03T19:21:33.450Z,10.80
2018-12-03T19:24:02.172Z,10.79
2018-12-03T19:26:30.867Z,10.79
2018-12-03T19:28:59.745Z,10.79
2018-12-03T19:31:28.460Z,10.78
2018-12-03T19:33:57.171Z,10.78
2018-12-03T19:36:26.007Z,10.78
2018-12-03T19:38:54.690Z,10.78
2018-12-03T19:41:23.579Z,10.78
2018-12-03T19:43:52.433Z,10.76
2018-12-03T19:46:21.312Z,10.75
2018-12-03T19:48:50.183Z,10.75
2018-12-03T19:51:19.110Z,10.73
2018-12-03T19:53:47.911Z,10.71
2018-12-03T19:56:16.571Z,10.70
2018-12-03T19:58:47.901Z,10.68
2018-12-03T20:01:16.606Z,10.68
2018-12-03T20:03:45.298Z,10.65
2018-12-03T20:06:13.985Z,10.65
2018-12-03T20:08:42.692Z,10.65
2018-12-03T20:11:11.433Z,10.64
2018-12-03T20:13:40.137Z,10.64
2018-12-03T20:16:09.620Z,10.63
2018-12-03T20:18:38.478Z,10.63
2018-12-03T20:21:12.407Z,10.62
2018-12-03T20:23:45.119Z,10.62
2018-12-03T20:26:24.362Z,10.61
2018-12-03T20:29:03.288Z,10.61
2018-12-03T20:31:48.868Z,10.62
2018-12-03T20:34:29.977Z,10.60
2018-12-03T20:37:48.352Z,10.61
2018-12-03T20:40:24.959Z,10.60
2018-12-03T20:43:06.302Z,10.61
2018-12-03T20:46:48.707Z,10.60
2018-12-03T20:49:27.346Z,10.56
2018-12-03T20:52:03.898Z,10.56
2018-12-03T20:54:32.579Z,10.56
2018-12-03T20:57:01.904Z,10.55
2018-12-03T20:59:30.646Z,10.54
2018-12-03T21:01:59.416Z,10.52
2018-12-03T21:04:28.146Z,10.48
2018-12-03T21:07:31.170Z,10.50
2018-12-03T21:10:01.133Z,10.46
2018-12-03T21:12:29.788Z,10.42
2018-12-03T21:14:58.504Z,10.38
2018-12-03T21:17:27.313Z,10.35
2018-12-03T21:20:00.571Z,10.32
2018-12-03T21:22:29.281Z,10.30
2018-12-03T21:24:57.950Z,10.27
2018-12-03T21:27:26.638Z,10.24
2018-12-03T21:29:55.290Z,10.22
2018-12-03T21:32:24.039Z,10.21
2018-12-03T21:34:52.731Z,10.20
2018-12-03T21:37:21.399Z,10.20
2018-12-03T21:39:50.562Z,10.19
2018-12-03T21:42:19.227Z,10.18
2018-12-03T21:44:47.904Z,10.18
2018-12-03T21:47:16.584Z,10.18
2018-12-03T21:49:45.217Z,10.17
2018-12-03T21:52:13.883Z,10.17
2018-12-03T21:54:42.520Z,10.16
2018-12-03T21:57:11.151Z,10.15
2018-12-03T21:59:39.829Z,10.13
2018-12-03T22:02:09.662Z,10.11
2018-12-03T22:04:38.302Z,10.09
2018-12-03T22:07:07.099Z,10.07
2018-12-03T22:09:37.124Z,10.03
2018-12-03T22:12:05.803Z,10.00
2018-12-03T22:14:34.487Z,9.97
2018-12-03T22:17:03.111Z,9.93
2018-12-03T22:19:31.758Z,9.91
2018-12-03T22:22:00.481Z,9.88
2018-12-03T22:24:29.102Z,9.85
2018-12-03T22:26:57.706Z,9.82
2018-12-03T22:29:26.314Z,9.78
2018-12-03T22:31:54.951Z,9.74
2018-12-03T22:34:23.582Z,9.73
2018-12-03T22:36:52.187Z,9.70
2018-12-03T22:39:21.090Z,9.66
2018-12-03T22:41:50.164Z,9.63
2018-12-03T22:44:18.817Z,9.59
2018-12-03T22:46:47.980Z,9.56
2018-12-03T22:49:16.593Z,9.53
2018-12-03T22:51:45.239Z,9.50
2018-12-03T22:54:13.883Z,9.47
2018-12-03T22:56:42.518Z,9.44
2018-12-03T22:59:11.151Z,9.40
2018-12-03T23:01:39.783Z,9.38
2018-12-03T23:04:08.489Z,9.35
2018-12-03T23:06:37.702Z,9.34
2018-12-03T23:09:08.109Z,9.31
2018-12-03T23:11:36.944Z,9.28
2018-12-03T23:14:05.572Z,9.26
2018-12-03T23:16:34.211Z,9.23
2018-12-03T23:19:02.841Z,9.21
2018-12-03T23:21:31.483Z,9.19
2018-12-03T23:24:00.102Z,9.16
2018-12-03T23:26:28.726Z,9.13
2018-12-03T23:28:57.347Z,9.11
2018-12-03T23:31:25.965Z,9.08
2018-12-03T23:33:54.621Z,9.05
2018-12-03T23:36:23.262Z,9.02
2018-12-03T23:38:51.902Z,8.98
2018-12-03T23:41:20.550Z,8.94
2018-12-03T23:43:49.268Z,8.91
2018-12-03T23:46:17.894Z,8.89
2018-12-03T23:48:46.507Z,8.86
2018-12-03T23:51:15.150Z,8.82
2018-12-03T23:53:44.419Z,8.79
2018-12-03T23:56:13.042Z,8.76
2018-12-03T23:58:41.695Z,8.75
